Time;durP1;ratioP1;P1;durP2;ratioP2;P2;SDS_P1;SDS_P2;PMS_P1;PMS_P2;Temp;Humidity;BMP_temperature;BMP_pressure;BME280_temperature;BME280_humidity;BME280_pressure;Samples;Min_cycle;Max_cycle;Signal;HPM_P1;HPM_P2
2022/02/14 00:00:11;;;;;;;7.97;4.60;;;6.60;99.90;;;;;;5095406;28;20498;-83
2022/02/14 00:02:37;;;;;;;6.40;4.30;;;6.60;99.90;;;;;;5096696;28;20024;-83
2022/02/14 00:05:04;;;;;;;6.63;4.20;;;6.60;99.90;;;;;;5095287;28;20100;-83
2022/02/14 00:07:30;;;;;;;7.28;4.50;;;6.60;99.90;;;;;;5096847;28;20105;-83
2022/02/14 00:09:56;;;;;;;7.15;4.43;;;6.60;99.90;;;;;;5095160;28;20032;-83
2022/02/14 00:12:22;;;;;;;10.60;4.88;;;6.60;99.90;;;;;;5095086;28;20097;-83
2022/02/14 00:14:48;;;;;;;6.65;4.15;;;6.50;99.90;;;;;;5095125;28;20016;-83
2022/02/14 00:17:14;;;;;;;6.28;3.85;;;6.50;99.90;;;;;;5095096;28;20123;-83
2022/02/14 00:19:39;;;;;;;7.53;4.60;;;6.50;99.90;;;;;;5095033;28;20069;-83
2022/02/14 00:22:05;;;;;;;6.57;4.55;;;6.50;99.90;;;;;;5095000;28;20027;-83
2022/02/14 00:24:31;;;;;;;6.15;4.10;;;6.50;99.90;;;;;;5096040;28;20031;-83
2022/02/14 00:26:57;;;;;;;7.35;4.18;;;6.50;99.90;;;;;;5095148;28;20035;-84
2022/02/14 00:29:22;;;;;;;11.50;4.00;;;6.50;99.90;;;;;;5096134;28;20024;-83
2022/02/14 00:31:48;;;;;;;6.50;3.67;;;6.50;99.90;;;;;;5095205;28;20024;-83
2022/02/14 00:34:15;;;;;;;7.07;3.95;;;6.50;99.90;;;;;;5094795;28;20020;-83
2022/02/14 00:36:42;;;;;;;8.48;4.00;;;6.50;99.90;;;;;;5094702;28;20020;-83
2022/02/14 00:39:10;;;;;;;5.70;3.75;;;6.40;99.90;;;;;;5094466;28;20039;-83
2022/02/14 00:41:36;;;;;;;7.00;3.95;;;6.40;99.90;;;;;;5094736;28;20502;-83
2022/02/14 00:44:02;;;;;;;5.97;3.92;;;6.40;99.90;;;;;;5094594;28;20024;-83
2022/02/14 00:46:28;;;;;;;6.03;4.07;;;6.40;99.90;;;;;;5094543;28;20028;-83
2022/02/14 00:48:53;;;;;;;6.45;3.70;;;6.40;99.90;;;;;;5094498;28;20047;-83
2022/02/14 00:51:19;;;;;;;4.93;3.78;;;6.40;99.90;;;;;;5094323;28;20025;-83
2022/02/14 00:53:46;;;;;;;5.93;3.97;;;6.40;99.90;;;;;;5094641;28;20114;-83
2022/02/14 00:56:11;;;;;;;5.93;3.38;;;6.40;99.90;;;;;;5094362;28;20019;-83
2022/02/14 00:58:37;;;;;;;6.13;3.60;;;6.40;99.90;;;;;;5094548;28;20078;-82
2022/02/14 01:01:03;;;;;;;4.78;3.17;;;6.40;99.90;;;;;;5094194;28;20035;-83
2022/02/14 01:03:29;;;;;;;7.47;3.78;;;6.40;99.90;;;;;;5094170;28;20050;-83
2022/02/14 01:05:54;;;;;;;5.75;3.65;;;6.40;99.90;;;;;;5094107;28;20484;-83
2022/02/14 01:08:20;;;;;;;7.10;3.65;;;6.40;99.90;;;;;;5094140;28;20028;-83
2022/02/14 01:10:45;;;;;;;5.80;3.50;;;6.40;99.90;;;;;;5095289;28;20107;-83
2022/02/14 01:13:11;;;;;;;6.88;3.70;;;6.40;99.90;;;;;;5094018;28;20404;-83
2022/02/14 01:15:37;;;;;;;4.78;3.10;;;6.40;99.90;;;;;;5094301;28;20027;-83
2022/02/14 01:18:03;;;;;;;4.43;3.10;;;6.40;99.90;;;;;;5093942;28;20028;-83
2022/02/14 01:20:28;;;;;;;6.38;3.60;;;6.40;99.90;;;;;;5095159;28;20043;-83
2022/02/14 01:22:54;;;;;;;6.75;3.47;;;6.40;99.90;;;;;;5093855;28;20077;-83
2022/02/14 01:25:20;;;;;;;5.40;3.45;;;6.40;99.90;;;;;;5093754;28;20026;-83
2022/02/14 01:27:45;;;;;;;4.63;3.08;;;6.40;99.90;;;;;;5093710;28;20024;-83
2022/02/14 01:30:12;;;;;;;12.70;3.63;;;6.40;99.90;;;;;;5093635;28;20495;-83
2022/02/14 01:32:38;;;;;;;5.32;3.30;;;6.40;99.90;;;;;;5093634;28;20078;-83
2022/02/14 01:35:05;;;;;;;4.28;2.85;;;6.40;99.90;;;;;;5094841;28;20024;-83
2022/02/14 01:37:32;;;;;;;4.57;3.25;;;6.40;99.90;;;;;;5093279;28;20093;-83
2022/02/14 01:39:59;;;;;;;6.57;3.60;;;6.40;99.90;;;;;;5093549;28;20529;-83
2022/02/14 01:42:25;;;;;;;4.38;2.90;;;6.40;99.90;;;;;;5093652;28;20035;-83
2022/02/14 01:44:52;;;;;;;4.28;3.00;;;6.30;99.90;;;;;;5094311;28;20111;-83
2022/02/14 01:47:24;;;;;;;4.22;2.83;;;6.40;99.90;;;;;;5093309;28;20024;-83
2022/02/14 01:49:52;;;;;;;4.72;3.30;;;6.40;99.90;;;;;;5093306;28;20552;-83
2022/02/14 01:52:18;;;;;;;4.50;2.95;;;6.40;99.90;;;;;;5094444;28;20480;-83
2022/02/14 01:54:47;;;;;;;5.35;3.13;;;6.30;99.90;;;;;;5093192;28;20020;-83
2022/02/14 01:57:14;;;;;;;4.25;2.80;;;6.40;99.90;;;;;;5093183;28;20499;-83
2022/02/14 01:59:40;;;;;;;6.47;3.40;;;6.40;99.90;;;;;;5093109;28;20020;-83
2022/02/14 02:02:09;;;;;;;4.15;2.97;;;6.30;99.90;;;;;;5093068;28;20093;-83
2022/02/14 02:04:36;;;;;;;5.22;3.08;;;6.30;99.90;;;;;;5093008;28;20391;-83
2022/02/14 02:07:03;;;;;;;6.15;3.08;;;6.40;99.90;;;;;;5094219;28;20024;-84
2022/02/14 02:09:30;;;;;;;3.80;2.75;;;6.30;99.90;;;;;;5094513;28;20028;-84
2022/02/14 02:14:41;;;;;;;3.33;2.75;;;6.30;99.90;;;;;;5094477;28;20101;-83
2022/02/14 02:17:07;;;;;;;3.95;2.72;;;6.30;99.90;;;;;;5094048;28;20028;-83
2022/02/14 02:19:32;;;;;;;4.05;2.67;;;6.30;99.90;;;;;;5094057;28;20416;-83
2022/02/14 02:21:58;;;;;;;6.22;2.90;;;6.30;99.90;;;;;;5092727;28;20399;-83
2022/02/14 02:24:24;;;;;;;5.13;2.53;;;6.30;99.90;;;;;;5092708;28;20468;-83
2022/02/14 02:26:57;;;;;;;5.95;3.00;;;6.30;99.90;;;;;;5092586;28;20024;-83
2022/02/14 02:29:23;;;;;;;5.72;3.03;;;6.30;99.90;;;;;;5092581;28;20032;-82
2022/02/14 02:31:49;;;;;;;4.95;2.70;;;6.30;99.90;;;;;;5092409;28;20073;-83
2022/02/14 02:34:15;;;;;;;5.57;2.92;;;6.30;99.90;;;;;;5092481;28;20028;-83
2022/02/14 02:36:55;;;;;;;7.55;2.50;;;6.30;99.90;;;;;;5092445;28;20024;-83
2022/02/14 02:39:21;;;;;;;4.97;2.55;;;6.30;99.90;;;;;;5092298;28;20044;-83
2022/02/14 02:41:47;;;;;;;4.00;2.60;;;6.30;99.90;;;;;;5092352;28;20071;-83
2022/02/14 02:44:14;;;;;;;4.90;2.65;;;6.30;99.90;;;;;;5092301;28;20035;-83
2022/02/14 02:46:40;;;;;;;5.28;2.53;;;6.30;99.90;;;;;;5092278;28;20038;-83
2022/02/14 02:49:09;;;;;;;3.85;2.55;;;6.30;99.90;;;;;;5092272;28;20063;-83
2022/02/14 02:51:40;;;;;;;3.88;2.60;;;6.30;99.90;;;;;;5092137;28;20115;-83
2022/02/14 02:54:07;;;;;;;4.28;2.60;;;6.30;99.90;;;;;;5091981;28;20031;-83
2022/02/14 02:56:34;;;;;;;4.70;2.55;;;6.20;99.90;;;;;;5091576;28;20024;-83
2022/02/14 02:58:59;;;;;;;4.55;2.50;;;6.20;99.90;;;;;;5092144;28;20044;-82
2022/02/14 03:01:25;;;;;;;3.90;2.22;;;6.20;99.90;;;;;;5093399;28;20515;-83
2022/02/14 03:03:52;;;;;;;3.53;2.60;;;6.20;99.90;;;;;;5092049;28;20020;-84
2022/02/14 03:06:19;;;;;;;4.28;2.33;;;6.20;99.90;;;;;;5091969;28;20487;-83
2022/02/14 03:08:45;;;;;;;4.85;2.45;;;6.20;99.90;;;;;;5092277;28;20388;-84
2022/02/14 03:11:11;;;;;;;4.38;2.50;;;6.20;99.90;;;;;;5091901;28;20028;-83
2022/02/14 03:13:36;;;;;;;4.03;2.33;;;6.20;99.90;;;;;;5092253;28;20486;-84
2022/02/14 03:16:02;;;;;;;4.95;2.40;;;6.20;99.90;;;;;;5091931;28;20024;-83
2022/02/14 03:18:28;;;;;;;4.35;2.40;;;6.20;99.90;;;;;;5091845;28;20021;-83
2022/02/14 03:20:54;;;;;;;3.95;2.25;;;6.20;99.90;;;;;;5091900;28;20454;-83
2022/02/14 03:23:20;;;;;;;4.95;2.45;;;6.10;99.90;;;;;;5091875;28;20058;-85
2022/02/14 03:25:46;;;;;;;4.38;2.30;;;6.20;99.90;;;;;;5092125;28;20032;-84
2022/02/14 03:28:12;;;;;;;4.63;2.45;;;6.20;99.90;;;;;;5091824;28;20453;-83
2022/02/14 03:30:37;;;;;;;5.65;2.53;;;6.20;99.90;;;;;;5091732;28;20059;-83
2022/02/14 03:33:03;;;;;;;4.03;2.53;;;6.20;99.90;;;;;;5091766;28;20089;-83
2022/02/14 03:35:29;;;;;;;3.85;2.45;;;6.20;99.90;;;;;;5093030;28;20024;-83
2022/02/14 03:37:56;;;;;;;5.88;2.60;;;6.10;99.90;;;;;;5091557;28;20571;-82
2022/02/14 03:40:22;;;;;;;4.65;2.55;;;6.20;99.90;;;;;;5091669;28;20032;-83
2022/02/14 03:42:48;;;;;;;4.20;2.13;;;6.20;99.90;;;;;;5091671;28;20480;-83
2022/02/14 03:45:13;;;;;;;4.03;2.05;;;6.10;99.90;;;;;;5091675;28;20124;-83
2022/02/14 03:47:39;;;;;;;4.30;2.20;;;6.10;99.90;;;;;;5092894;28;20388;-83
2022/02/14 03:50:06;;;;;;;4.05;2.33;;;6.10;99.90;;;;;;5091624;28;20437;-83
2022/02/14 03:52:31;;;;;;;4.32;2.30;;;6.20;99.90;;;;;;5092691;28;20422;-84
2022/02/14 03:54:57;;;;;;;4.55;2.20;;;6.20;99.90;;;;;;5091534;28;20023;-83
2022/02/14 03:57:22;;;;;;;6.60;2.45;;;6.10;99.90;;;;;;5091529;28;20101;-84
2022/02/14 03:59:48;;;;;;;4.60;2.40;;;6.10;99.90;;;;;;5091550;28;20024;-84
2022/02/14 04:02:14;;;;;;;4.38;2.28;;;6.20;99.90;;;;;;5093047;28;20028;-84
2022/02/14 04:04:40;;;;;;;4.82;2.28;;;6.10;99.90;;;;;;5092008;28;20020;-84
2022/02/14 04:07:05;;;;;;;3.95;2.40;;;6.10;99.90;;;;;;5093532;28;20032;-83
2022/02/14 04:09:31;;;;;;;3.47;1.95;;;6.10;99.90;;;;;;5095286;28;20515;-84
2022/02/14 04:11:57;;;;;;;4.00;2.15;;;6.10;99.90;;;;;;5095134;28;20035;-83
2022/02/14 04:14:22;;;;;;;3.13;2.30;;;6.10;99.90;;;;;;5095123;28;20403;-83
2022/02/14 04:16:48;;;;;;;4.05;1.90;;;6.10;99.90;;;;;;5095314;28;20057;-83
2022/02/14 04:19:13;;;;;;;4.43;2.20;;;6.10;99.90;;;;;;5094975;28;20028;-83
2022/02/14 04:21:39;;;;;;;3.60;2.10;;;6.10;99.90;;;;;;5094931;28;20038;-84
2022/02/14 04:24:05;;;;;;;4.25;2.40;;;6.10;99.90;;;;;;5094917;28;20054;-84
2022/02/14 04:26:30;;;;;;;3.45;1.95;;;6.10;99.90;;;;;;5094862;28;20063;-84
2022/02/14 04:28:56;;;;;;;2.67;1.90;;;6.10;99.90;;;;;;5094699;28;20074;-84
2022/02/14 04:31:22;;;;;;;3.65;2.00;;;6.10;99.90;;;;;;5094673;28;20024;-84
2022/02/14 04:33:47;;;;;;;4.00;2.10;;;6.10;99.90;;;;;;5094758;28;20063;-83
2022/02/14 04:36:13;;;;;;;4.68;2.22;;;6.10;99.90;;;;;;5094711;28;20115;-83
2022/02/14 04:38:39;;;;;;;7.47;1.90;;;6.10;99.90;;;;;;5094465;28;20036;-83
2022/02/14 04:41:04;;;;;;;2.88;1.75;;;6.10;99.90;;;;;;5094652;28;20028;-83
2022/02/14 04:43:30;;;;;;;4.47;2.13;;;6.10;99.90;;;;;;5094615;28;20028;-84
2022/02/14 04:45:56;;;;;;;3.30;1.88;;;6.10;99.90;;;;;;5094549;28;20035;-83
2022/02/14 04:48:21;;;;;;;3.13;2.10;;;6.10;99.90;;;;;;5096020;28;20606;-84
2022/02/14 04:50:47;;;;;;;3.95;2.38;;;6.00;99.90;;;;;;5094433;28;20052;-83
2022/02/14 04:53:13;;;;;;;4.15;1.88;;;6.10;99.90;;;;;;5094398;28;20039;-84
2022/02/14 04:55:38;;;;;;;4.15;1.98;;;6.00;99.90;;;;;;5094640;28;20073;-83
2022/02/14 04:58:04;;;;;;;3.60;2.10;;;6.10;99.90;;;;;;5094335;28;20055;-83
2022/02/14 05:00:31;;;;;;;3.17;1.98;;;6.00;99.90;;;;;;5094281;28;20044;-83
2022/02/14 05:02:57;;;;;;;2.97;2.13;;;6.10;99.90;;;;;;5094210;28;20020;-83
2022/02/14 05:05:23;;;;;;;3.55;1.95;;;6.00;99.90;;;;;;5095416;28;20074;-83
2022/02/14 05:07:50;;;;;;;3.65;1.95;;;6.00;99.90;;;;;;5094136;28;20024;-84
2022/02/14 05:10:17;;;;;;;3.63;2.03;;;6.10;99.90;;;;;;5094118;28;20020;-83
2022/02/14 05:12:43;;;;;;;3.22;1.88;;;6.00;99.90;;;;;;5095279;28;20020;-84
2022/02/14 05:15:09;;;;;;;3.78;1.83;;;6.00;99.90;;;;;;5093978;28;20534;-83
2022/02/14 05:17:35;;;;;;;2.63;1.95;;;6.00;99.90;;;;;;5094535;28;20103;-84
2022/02/14 05:20:03;;;;;;;4.47;2.15;;;6.00;99.90;;;;;;5093696;28;20020;-83
2022/02/14 05:22:29;;;;;;;3.60;2.20;;;6.00;99.90;;;;;;5095267;28;20024;-82
2022/02/14 05:24:55;;;;;;;5.00;2.25;;;6.00;99.90;;;;;;5093807;28;20502;-83
2022/02/14 05:27:21;;;;;;;6.68;2.45;;;6.00;99.90;;;;;;5093737;28;20137;-83
2022/02/14 05:29:47;;;;;;;3.05;2.00;;;6.00;99.90;;;;;;5093712;28;20059;-84
2022/02/14 05:32:13;;;;;;;4.35;2.10;;;6.00;99.90;;;;;;5094844;28;20099;-82
2022/02/14 05:34:38;;;;;;;3.90;1.98;;;6.00;99.90;;;;;;5093610;28;20538;-83
2022/02/14 05:37:05;;;;;;;3.78;2.00;;;6.00;99.90;;;;;;5094627;28;20044;-83
2022/02/14 05:39:30;;;;;;;4.18;2.20;;;6.00;99.90;;;;;;5093535;28;20031;-83
2022/02/14 05:41:56;;;;;;;4.85;2.22;;;6.00;99.90;;;;;;5093412;28;20024;-83
2022/02/14 05:44:22;;;;;;;6.25;2.20;;;6.00;99.90;;;;;;5093411;28;20024;-83
2022/02/14 05:46:48;;;;;;;3.92;2.22;;;6.00;99.90;;;;;;5093348;28;20032;-83
2022/02/14 05:49:14;;;;;;;5.25;2.10;;;5.90;99.90;;;;;;5094576;28;20043;-83
2022/02/14 05:51:40;;;;;;;5.30;1.98;;;5.90;99.90;;;;;;5093145;28;20032;-83
2022/02/14 05:54:06;;;;;;;3.42;2.20;;;5.90;99.90;;;;;;5093223;28;20175;-83
2022/02/14 05:56:32;;;;;;;3.72;1.88;;;5.90;99.90;;;;;;5093154;28;20020;-83
2022/02/14 05:59:00;;;;;;;4.20;2.00;;;5.90;99.90;;;;;;5093114;28;20065;-83
2022/02/14 06:01:27;;;;;;;2.70;1.90;;;5.90;99.90;;;;;;5093256;28;20020;-84
2022/02/14 06:03:53;;;;;;;3.78;2.13;;;5.90;99.90;;;;;;5093010;28;20435;-83
2022/02/14 06:06:19;;;;;;;3.17;2.00;;;5.90;99.90;;;;;;5094183;28;20117;-84
2022/02/14 06:08:44;;;;;;;4.95;1.85;;;5.90;99.90;;;;;;5092929;28;20042;-84
2022/02/14 06:11:10;;;;;;;4.57;2.25;;;5.90;99.90;;;;;;5092809;28;20020;-83
2022/02/14 06:13:36;;;;;;;3.80;1.95;;;5.90;99.90;;;;;;5092863;28;20048;-84
2022/02/14 06:16:02;;;;;;;3.40;2.17;;;5.90;99.90;;;;;;5092841;28;20028;-83
2022/02/14 06:18:28;;;;;;;4.65;2.08;;;5.90;99.90;;;;;;5093526;28;20034;-83
2022/02/14 06:20:54;;;;;;;3.75;2.25;;;5.90;99.90;;;;;;5092674;28;20028;-82
2022/02/14 06:23:19;;;;;;;3.20;2.15;;;5.90;99.90;;;;;;5092693;28;20024;-83
2022/02/14 06:25:45;;;;;;;4.63;2.00;;;5.90;99.90;;;;;;5092647;28;20020;-82
2022/02/14 06:28:11;;;;;;;3.53;2.00;;;5.90;99.90;;;;;;5092601;28;20514;-84
2022/02/14 06:30:36;;;;;;;4.60;2.20;;;5.90;99.90;;;;;;5092294;28;20160;-83
2022/02/14 06:33:02;;;;;;;3.88;2.10;;;5.90;99.90;;;;;;5093741;28;20022;-83
2022/02/14 06:35:28;;;;;;;3.03;2.08;;;5.90;99.90;;;;;;5092402;28;20536;-83
2022/02/14 06:37:55;;;;;;;3.65;2.35;;;5.90;99.90;;;;;;5092150;28;20044;-83
2022/02/14 06:40:20;;;;;;;5.57;2.17;;;5.90;99.90;;;;;;5092378;28;20020;-83
2022/02/14 06:42:47;;;;;;;3.90;2.28;;;5.90;99.90;;;;;;5092331;28;20035;-83
2022/02/14 06:45:15;;;;;;;6.50;2.47;;;5.90;99.90;;;;;;5092282;28;20039;-83
2022/02/14 06:47:41;;;;;;;3.80;2.30;;;5.90;99.90;;;;;;5093561;28;20035;-83
2022/02/14 06:50:07;;;;;;;2.70;2.00;;;5.90;99.90;;;;;;5092240;28;20114;-83
2022/02/14 06:52:32;;;;;;;5.15;2.00;;;5.90;99.90;;;;;;5092104;28;20028;-83
2022/02/14 06:54:58;;;;;;;4.00;2.30;;;5.90;99.90;;;;;;5092132;28;20020;-82
2022/02/14 06:57:24;;;;;;;3.80;2.50;;;5.90;99.90;;;;;;5093353;28;20371;-83
2022/02/14 06:59:50;;;;;;;5.78;2.45;;;5.90;99.90;;;;;;5093454;28;20032;-84
2022/02/14 07:02:16;;;;;;;3.85;2.35;;;5.90;99.90;;;;;;5093333;28;20021;-84
2022/02/14 07:04:41;;;;;;;3.75;2.30;;;5.90;99.90;;;;;;5092499;28;20020;-83
2022/02/14 07:07:07;;;;;;;5.40;2.30;;;5.90;99.90;;;;;;5091944;28;20032;-83
2022/02/14 07:09:33;;;;;;;3.85;2.03;;;5.90;99.90;;;;;;5091980;28;20028;-83
2022/02/14 07:11:58;;;;;;;2.63;2.08;;;5.90;99.90;;;;;;5091882;28;20028;-83
2022/02/14 07:14:24;;;;;;;4.78;2.08;;;6.00;99.90;;;;;;5091897;28;20168;-83
2022/02/14 07:16:50;;;;;;;4.53;2.10;;;6.10;99.90;;;;;;5091900;28;20016;-83
2022/02/14 07:19:16;;;;;;;3.95;2.25;;;6.40;99.90;;;;;;5091888;28;20101;-83
2022/02/14 07:21:42;;;;;;;4.20;2.10;;;6.60;99.90;;;;;;5091867;28;20056;-84
2022/02/14 07:24:08;;;;;;;2.78;2.03;;;6.90;99.90;;;;;;5092450;28;20028;-84
2022/02/14 07:26:34;;;;;;;3.53;2.00;;;7.20;99.90;;;;;;5091817;28;20051;-84
2022/02/14 07:29:00;;;;;;;8.88;2.15;;;7.50;99.90;;;;;;5093108;28;20016;-83
2022/02/14 07:31:26;;;;;;;4.15;2.35;;;7.70;99.90;;;;;;5091680;28;20135;-84
2022/02/14 07:33:52;;;;;;;5.03;2.00;;;8.00;99.90;;;;;;5092042;28;20107;-84
2022/02/14 07:36:18;;;;;;;2.80;1.80;;;8.20;99.90;;;;;;5091785;28;20028;-84
2022/02/14 07:38:44;;;;;;;4.10;2.20;;;8.30;99.90;;;;;;5091566;28;20411;-84
2022/02/14 07:41:10;;;;;;;3.40;1.90;;;8.50;99.90;;;;;;5092381;28;20118;-84
2022/02/14 07:43:35;;;;;;;4.85;2.25;;;8.80;99.90;;;;;;5095715;28;20028;-84
2022/02/14 07:46:01;;;;;;;4.50;1.95;;;9.20;99.90;;;;;;5095762;28;20035;-84
2022/02/14 07:48:27;;;;;;;3.00;1.90;;;9.50;99.90;;;;;;5095694;28;20085;-84
2022/02/14 07:50:52;;;;;;;7.43;2.20;;;9.90;99.90;;;;;;5095481;28;20491;-85
2022/02/14 07:53:19;;;;;;;4.40;2.00;;;10.30;99.90;;;;;;5097299;28;20042;-83
2022/02/14 07:55:45;;;;;;;4.38;2.55;;;10.60;99.90;;;;;;5095778;28;20028;-84
2022/02/14 07:58:11;;;;;;;4.53;2.47;;;11.00;99.90;;;;;;5096906;28;20016;-83
2022/02/14 08:00:36;;;;;;;6.25;2.28;;;11.30;99.90;;;;;;5095910;28;20030;-84
2022/02/14 08:03:02;;;;;;;5.05;2.30;;;11.60;99.90;;;;;;5096723;28;20093;-84
2022/02/14 08:05:28;;;;;;;4.38;2.40;;;11.80;99.70;;;;;;5096942;28;20020;-83
2022/02/14 08:07:54;;;;;;;3.97;2.17;;;12.00;99.50;;;;;;5096750;28;20034;-84
2022/02/14 08:10:20;;;;;;;5.05;2.60;;;12.20;99.50;;;;;;5095510;28;20395;-83
2022/02/14 08:12:45;;;;;;;4.72;2.33;;;12.20;98.80;;;;;;5095476;28;20563;-83
2022/02/14 08:15:11;;;;;;;3.53;2.03;;;12.40;98.60;;;;;;5095558;28;20038;-83
2022/02/14 08:17:37;;;;;;;5.80;2.30;;;12.30;98.40;;;;;;5095220;28;20432;-83
2022/02/14 08:20:04;;;;;;;9.10;2.08;;;12.70;97.90;;;;;;5095096;28;20111;-82
2022/02/14 08:22:30;;;;;;;5.05;2.15;;;12.80;97.60;;;;;;5095141;28;20035;-83
2022/02/14 08:24:57;;;;;;;5.82;2.00;;;13.10;97.40;;;;;;5096340;28;20383;-82
2022/02/14 08:27:24;;;;;;;6.43;2.28;;;12.40;97.50;;;;;;5095261;28;20169;-83
2022/02/14 08:29:53;;;;;;;3.33;2.28;;;11.70;98.30;;;;;;5094970;28;20096;-83
2022/02/14 08:32:18;;;;;;;5.63;2.22;;;11.20;99.10;;;;;;5096198;28;20420;-82
2022/02/14 08:34:44;;;;;;;5.90;2.08;;;11.00;99.40;;;;;;5094885;28;20059;-84
2022/02/14 08:37:11;;;;;;;3.88;2.03;;;10.50;99.80;;;;;;5094590;28;20069;-84
2022/02/14 08:39:38;;;;;;;5.57;2.20;;;10.10;99.90;;;;;;5096095;28;20052;-83
2022/02/14 08:42:04;;;;;;;4.43;2.00;;;10.20;99.90;;;;;;5094826;28;20058;-83
2022/02/14 08:44:30;;;;;;;5.00;2.10;;;10.30;99.90;;;;;;5095057;28;20028;-83
2022/02/14 08:46:56;;;;;;;4.25;2.10;;;10.40;99.90;;;;;;5094739;28;20024;-82
2022/02/14 08:49:24;;;;;;;3.40;2.25;;;10.50;99.90;;;;;;5094771;28;20111;-82
2022/02/14 08:51:54;;;;;;;6.38;2.20;;;10.50;99.90;;;;;;5094545;28;20024;-82
2022/02/14 08:54:20;;;;;;;4.25;2.20;;;10.40;99.90;;;;;;5093407;28;20043;-83
2022/02/14 08:56:46;;;;;;;4.78;2.30;;;10.50;99.90;;;;;;5094599;28;20024;-83
2022/02/14 08:59:18;;;;;;;6.80;2.53;;;10.50;99.90;;;;;;5094503;28;20545;-82
2022/02/14 09:01:46;;;;;;;4.78;2.00;;;10.50;99.90;;;;;;5096011;28;20031;-82
2022/02/14 09:04:11;;;;;;;5.70;2.45;;;10.40;99.90;;;;;;5094464;28;20480;-82
2022/02/14 09:06:37;;;;;;;5.35;2.50;;;10.40;99.90;;;;;;5094282;28;20038;-82
2022/02/14 09:09:04;;;;;;;5.90;2.30;;;10.50;99.90;;;;;;5094350;28;20028;-83
2022/02/14 09:11:30;;;;;;;4.90;2.40;;;10.50;99.90;;;;;;5094125;28;20439;-83
2022/02/14 09:13:55;;;;;;;4.07;2.10;;;10.50;99.90;;;;;;5094257;28;20050;-83
2022/02/14 09:16:21;;;;;;;4.80;2.20;;;10.50;99.90;;;;;;5094337;28;20023;-82
2022/02/14 09:18:47;;;;;;;5.50;2.03;;;10.00;99.90;;;;;;5094415;28;20042;-82
2022/02/14 09:21:13;;;;;;;6.20;2.63;;;9.60;99.90;;;;;;5094039;28;20024;-82
2022/02/14 09:23:38;;;;;;;7.32;2.42;;;9.40;99.90;;;;;;5095592;28;20020;-82
2022/02/14 09:26:04;;;;;;;7.10;2.40;;;9.40;99.90;;;;;;5093948;28;20035;-81
2022/02/14 09:28:30;;;;;;;5.38;2.67;;;9.20;99.90;;;;;;5097274;28;20519;-82
2022/02/14 09:30:56;;;;;;;7.80;2.97;;;9.30;99.90;;;;;;5093972;28;20118;-83
2022/02/14 09:33:24;;;;;;;6.18;2.55;;;9.50;99.90;;;;;;5093915;28;20365;-83
2022/02/14 09:35:50;;;;;;;6.40;3.10;;;9.60;99.90;;;;;;5093905;28;20508;-83
2022/02/14 09:38:16;;;;;;;6.57;2.70;;;9.50;99.90;;;;;;5094878;28;20066;-82
2022/02/14 09:40:42;;;;;;;9.27;3.25;;;9.20;99.90;;;;;;5093805;28;20475;-82
2022/02/14 09:43:13;;;;;;;10.35;3.30;;;8.90;99.90;;;;;;5093517;28;20143;-83
2022/02/14 09:45:39;;;;;;;6.13;2.85;;;8.70;99.90;;;;;;5093524;28;20061;-82
2022/02/14 09:48:08;;;;;;;7.45;3.13;;;8.50;99.90;;;;;;5093543;28;20074;-82
2022/02/14 09:50:36;;;;;;;11.30;2.80;;;8.30;99.90;;;;;;5095067;28;20025;-82
2022/02/14 09:53:04;;;;;;;7.68;2.92;;;8.20;99.90;;;;;;5093345;28;20494;-82
2022/02/14 09:55:31;;;;;;;5.25;2.53;;;8.00;99.90;;;;;;5093273;28;20065;-82
2022/02/14 09:57:57;;;;;;;9.18;3.03;;;7.90;99.90;;;;;;5093169;28;20043;-82
2022/02/14 10:00:23;;;;;;;9.40;2.85;;;7.90;99.90;;;;;;5093235;28;20476;-82
2022/02/14 10:03:07;;;;;;;5.80;2.95;;;7.80;99.90;;;;;;5094438;28;20024;-82
2022/02/14 10:05:41;;;;;;;6.55;2.75;;;7.90;99.90;;;;;;5093242;28;20032;-82
2022/02/14 10:08:07;;;;;;;6.40;2.70;;;7.80;99.90;;;;;;5093071;28;20074;-82
2022/02/14 10:10:32;;;;;;;8.88;3.05;;;7.70;99.90;;;;;;5094409;28;20420;-82
2022/02/14 10:12:59;;;;;;;6.70;2.50;;;7.70;99.90;;;;;;5093174;28;20027;-82
2022/02/14 10:15:26;;;;;;;7.55;2.95;;;7.70;99.90;;;;;;5092832;28;20538;-81
2022/02/14 10:17:59;;;;;;;8.70;2.40;;;7.70;99.90;;;;;;5092826;28;20031;-82
2022/02/14 10:20:26;;;;;;;7.57;2.70;;;7.60;99.90;;;;;;5092808;28;20028;-82
2022/02/14 10:23:02;;;;;;;9.50;2.50;;;7.70;99.90;;;;;;5092786;28;20048;-82
2022/02/14 10:25:35;;;;;;;5.03;2.20;;;7.70;99.90;;;;;;5092766;28;20020;-82
2022/02/14 10:28:25;;;;;;;5.63;2.55;;;7.70;99.90;;;;;;5092794;28;20020;-82
2022/02/14 10:31:07;;;;;;;13.30;2.63;;;7.70;99.90;;;;;;5093422;28;20124;-82
2022/02/14 10:33:52;;;;;;;5.32;2.45;;;7.70;99.90;;;;;;5093868;28;20027;-82
2022/02/14 10:36:27;;;;;;;5.20;2.78;;;7.70;99.90;;;;;;5093103;28;20024;-82
2022/02/14 10:38:54;;;;;;;7.15;2.42;;;7.70;99.90;;;;;;5092313;28;20495;-82
2022/02/14 10:41:20;;;;;;;5.68;2.33;;;7.70;99.90;;;;;;5092424;28;20027;-82
2022/02/14 10:43:46;;;;;;;7.07;2.78;;;7.70;99.90;;;;;;5092410;28;20023;-83
2022/02/14 10:46:23;;;;;;;5.65;2.60;;;7.80;99.90;;;;;;5093902;28;20047;-82
2022/02/14 10:48:55;;;;;;;6.38;2.40;;;7.80;99.90;;;;;;5092400;28;20069;-82
2022/02/14 10:51:21;;;;;;;7.35;2.72;;;7.80;99.90;;;;;;5092202;28;20039;-82
2022/02/14 10:53:51;;;;;;;6.65;2.47;;;7.90;99.90;;;;;;5093542;28;20475;-83
2022/02/14 10:56:18;;;;;;;5.82;2.50;;;7.80;99.90;;;;;;5092274;28;20024;-82
2022/02/14 10:58:48;;;;;;;5.68;2.75;;;7.90;99.90;;;;;;5092204;28;20028;-82
2022/02/14 11:01:15;;;;;;;4.68;2.28;;;7.90;99.90;;;;;;5092155;28;20454;-82
2022/02/14 11:03:44;;;;;;;7.00;2.30;;;7.90;99.90;;;;;;5092139;28;20115;-82
2022/02/14 11:06:11;;;;;;;3.88;1.98;;;7.90;99.90;;;;;;5091987;28;20119;-82
2022/02/14 11:08:38;;;;;;;5.90;2.67;;;7.80;99.90;;;;;;5093339;28;20157;-82
2022/02/14 11:11:05;;;;;;;6.22;2.15;;;7.80;99.90;;;;;;5091957;28;20063;-82
2022/02/14 11:13:32;;;;;;;6.50;2.42;;;7.80;99.90;;;;;;5093279;28;20028;-82
2022/02/14 11:15:59;;;;;;;8.38;2.50;;;7.80;99.90;;;;;;5091131;28;20016;-83
2022/02/14 11:18:37;;;;;;;4.43;2.08;;;7.80;99.90;;;;;;5091945;28;20065;-82
2022/02/14 11:21:03;;;;;;;3.90;2.30;;;7.90;99.90;;;;;;5092011;28;20396;-82
2022/02/14 11:23:33;;;;;;;5.93;2.97;;;7.80;99.90;;;;;;5092435;28;20020;-82
2022/02/14 11:26:23;;;;;;;3.60;2.13;;;7.80;99.90;;;;;;5093233;28;20175;-82
2022/02/14 11:29:00;;;;;;;6.57;2.45;;;7.80;99.90;;;;;;5091936;28;20485;-82
2022/02/14 11:31:31;;;;;;;5.03;2.50;;;7.80;99.90;;;;;;5091815;28;20407;-82
2022/02/14 11:33:59;;;;;;;5.88;2.38;;;7.70;99.90;;;;;;5091849;28;20024;-82
2022/02/14 11:36:27;;;;;;;6.88;2.28;;;7.70;99.90;;;;;;5091779;28;20021;-82
2022/02/14 11:38:54;;;;;;;6.88;2.20;;;7.70;99.90;;;;;;5091635;28;20080;-82
2022/02/14 11:41:42;;;;;;;5.82;2.35;;;7.70;99.90;;;;;;5091748;28;20028;-82
2022/02/14 11:44:17;;;;;;;4.93;2.22;;;7.70;99.90;;;;;;5091764;28;20066;-82
2022/02/14 11:46:44;;;;;;;6.40;2.30;;;7.60;99.90;;;;;;5093268;28;20407;-83
2022/02/14 11:49:10;;;;;;;7.00;2.45;;;7.70;99.90;;;;;;5091674;28;20112;-82
2022/02/14 11:51:54;;;;;;;4.63;2.22;;;7.70;99.90;;;;;;5091541;28;20142;-82
2022/02/14 11:54:27;;;;;;;;;;;7.70;99.90;;;;;;5093400;28;20076;-82
2022/02/14 11:56:54;;;;;;;4.93;1.98;;;7.80;99.90;;;;;;5091606;28;19911;-83
2022/02/14 11:59:29;;;;;;;3.97;2.10;;;7.80;99.90;;;;;;5091564;28;20039;-82
2022/02/14 12:02:03;;;;;;;4.57;2.00;;;7.70;99.90;;;;;;5091550;28;20085;-82
2022/02/14 12:04:41;;;;;;;5.53;2.05;;;7.70;99.90;;;;;;5091530;28;20032;-83
2022/02/14 12:07:27;;;;;;;4.97;2.28;;;7.70;99.90;;;;;;5091430;28;20028;-83
2022/02/14 12:12:43;;;;;;;6.80;2.28;;;7.60;99.90;;;;;;5092925;28;20032;-82
2022/02/14 12:21:14;;;;;;;4.22;1.73;;;7.50;99.90;;;;;;5092971;28;20038;-82
2022/02/14 12:23:44;;;;;;;5.07;2.35;;;7.50;99.90;;;;;;5091402;28;20123;-82
2022/02/14 12:26:12;;;;;;;4.97;2.03;;;7.50;99.90;;;;;;5091330;28;20031;-82
2022/02/14 12:28:41;;;;;;;3.53;1.83;;;7.50;99.90;;;;;;5094122;28;20409;-82
2022/02/14 12:31:07;;;;;;;3.72;2.25;;;7.50;99.90;;;;;;5094840;28;20111;-83
2022/02/14 12:33:33;;;;;;;6.90;2.10;;;7.40;99.90;;;;;;5094912;28;20040;-82
2022/02/14 12:36:03;;;;;;;7.28;2.00;;;7.50;99.90;;;;;;5094877;28;20107;-82
2022/02/14 12:38:35;;;;;;;4.75;1.85;;;7.40;99.90;;;;;;5094588;28;20075;-82
2022/02/14 12:41:10;;;;;;;5.32;2.20;;;7.50;99.90;;;;;;5094749;28;20058;-82
2022/02/14 12:43:42;;;;;;;4.75;1.63;;;7.50;99.90;;;;;;5094774;28;20023;-82
2022/02/14 12:46:11;;;;;;;5.13;2.20;;;7.40;99.90;;;;;;5095931;28;20046;-82
2022/02/14 12:48:51;;;;;;;6.72;2.25;;;7.40;99.90;;;;;;5094528;28;20028;-82
2022/02/14 12:51:23;;;;;;;4.10;2.15;;;7.40;99.90;;;;;;5094520;28;20442;-82
2022/02/14 12:53:52;;;;;;;3.95;1.92;;;7.40;99.90;;;;;;5094496;28;20027;-82
2022/02/14 12:56:26;;;;;;;6.28;2.30;;;7.40;99.90;;;;;;5094423;28;20029;-82
2022/02/14 12:58:55;;;;;;;4.38;2.13;;;7.30;99.90;;;;;;5094470;28;20111;-82
2022/02/14 13:01:23;;;;;;;3.58;1.80;;;7.30;99.90;;;;;;5094352;28;20062;-82
2022/02/14 13:04:00;;;;;;;4.50;2.17;;;7.30;99.90;;;;;;5094281;28;20059;-82
2022/02/14 13:06:50;;;;;;;4.68;2.17;;;7.30;99.90;;;;;;5094161;28;20020;-82